Main page
METAR-TAF:

METAR-TAF

Airports :

Wiarton Airport

Wiarton, Ontario, Canada

latitude: 44-45N, longitude: 081-06W, elevation: 222 m

Current weather observation

The report was made 24 minutes ago, at 20:00 UTC
Wind 13 kt from the Southwest with gusts up to 22 kt
Temperature 30°C
Humidity 59%
Pressure 1014 hPa
Visibility: 24.1 km
Few clouds at a height of 3200 ft
Scattered clouds at a height of 25000 ft

METAR: CYVV 172000Z 23013G22KT 15SM FEW032 SCT250 30/21 A2995 RMK CU1CI4 CU TR SLP140 DENSITY ALT 2600FT

Time: 16:24 (20:24 UTC)

Forecast

The report was made 44 minutes ago, at 19:40 UTC
Forecast valid from 17 at 20 UTC to 17 at 23 UTC
Wind 10 kt from the Southwest with gusts up to 20 kt
Visibility: 10 km
Few clouds at a height of 3000 ft
Scattered clouds at a height of 24000 ft

TAF: CYVV 171940Z 1720/1723 23010G20KT P6SM FEW030 SCT240 RMK NXT FCST BY 181100Z

Weather observations and forecasts of more than 4000 airports (METAR and TAF reports).

The available stations are represented by yellow and red dots on the map.

Hover mouse over dot to see the name of the station.

Then click to see weather observations and forecasts.

To change the map : click on the green buttons with a black cross to zoom in, on the green button with a dash to zoom out, or on the green arrows for adjacent maps.


METAR-TAF: